aviador You're here:

KICT Decoded Metar

WICHITA in KS, USA
Report Time2018-07-22 03:53:00
UTC Time2018-07-22 04:55:31
Flight Rules vfr VFR
Wind080° at 04 kt
W.Decomp.*RWY 01: 1.8 kt HW 3.6 kt RCW
RWY 14: 1.6 kt HW 3.7 kt LCW
W.Rank080° ranks 23
Current wind is below 080° avg. (7.3)
Visibility9999 m
Phenomena:N/A
Clouds:Scattered 200 Hf
Expected CloudBase > 4,000 ft AGL from Temp-Dew spread
CeilingNone
Temp29°C (ISA +17)
Dew Point19°C (55% RH)
Heat Index30.3°C
QNH1015 hPa
Density Alt3,471 ft
Elevation1,335 ft
Report Wrong Elevation
Raw Report
KICT 220353Z 08004KT 10SM SCT200 29/19 A2998 RMK AO2 SLP135
T02890189 $=

Extra information for KICT:More info

Metar Taf Metar & Taf Last 4 Metars F.Rules Stats Wind Profile Meteogram Temp Stats Airport Information Weather charts Add Link Nearby VenuesMetar ALERT Operation Metar Decoded Social comments

AIRNAV info for KICT